sensor_id;sensor_type;location;lat;lon;timestamp;temperature;humidity
35381;DHT22;21486;51.916;8.378;2022-07-06T05:14:10;19.00;85.70
35381;DHT22;21486;51.916;8.378;2022-07-06T05:50:59;20.20;99.90
35381;DHT22;21486;51.916;8.378;2022-07-06T05:53:25;22.90;90.90
35381;DHT22;21486;51.916;8.378;2022-07-06T05:55:50;22.80;90.80
35381;DHT22;21486;51.916;8.378;2022-07-06T06:00:42;22.60;91.30
35381;DHT22;21486;51.916;8.378;2022-07-06T06:03:07;21.10;93.10
35381;DHT22;21486;51.916;8.378;2022-07-06T06:05:33;20.70;94.40
35381;DHT22;21486;51.916;8.378;2022-07-06T06:07:58;20.10;95.70
35381;DHT22;21486;51.916;8.378;2022-07-06T06:10:24;19.80;97.00
35381;DHT22;21486;51.916;8.378;2022-07-06T06:12:50;19.80;96.60
35381;DHT22;21486;51.916;8.378;2022-07-06T06:15:16;19.50;97.60
35381;DHT22;21486;51.916;8.378;2022-07-06T06:17:42;21.10;97.20
35381;DHT22;21486;51.916;8.378;2022-07-06T06:20:12;22.10;94.00
35381;DHT22;21486;51.916;8.378;2022-07-06T06:22:48;22.70;92.10
35381;DHT22;21486;51.916;8.378;2022-07-06T06:25:15;21.30;92.90
35381;DHT22;21486;51.916;8.378;2022-07-06T06:27:41;20.10;95.10
35381;DHT22;21486;51.916;8.378;2022-07-06T08:48:45;19.60;97.20
35381;DHT22;21486;51.916;8.378;2022-07-06T08:51:13;24.60;87.70
35381;DHT22;21486;51.916;8.378;2022-07-06T08:53:41;24.50;83.90
35381;DHT22;21486;51.916;8.378;2022-07-06T08:56:07;23.70;81.60
35381;DHT22;21486;51.916;8.378;2022-07-06T08:58:33;22.20;85.50
35381;DHT22;21486;51.916;8.378;2022-07-06T09:01:00;21.00;90.40
35381;DHT22;21486;51.916;8.378;2022-07-06T11:56:57;20.40;91.10
35381;DHT22;21486;51.916;8.378;2022-07-06T12:26:50;20.40;91.10
35381;DHT22;21486;51.916;8.378;2022-07-06T12:29:17;25.50;67.00
35381;DHT22;21486;51.916;8.378;2022-07-06T12:31:54;25.60;69.90
35381;DHT22;21486;51.916;8.378;2022-07-06T12:34:27;25.30;68.60
35381;DHT22;21486;51.916;8.378;2022-07-06T12:36:58;24.30;71.80
35381;DHT22;21486;51.916;8.378;2022-07-06T12:39:26;24.10;70.80
35381;DHT22;21486;51.916;8.378;2022-07-06T12:42:00;23.70;73.50
35381;DHT22;21486;51.916;8.378;2022-07-06T12:44:26;23.20;74.60
35381;DHT22;21486;51.916;8.378;2022-07-06T12:49:28;22.20;76.70
35381;DHT22;21486;51.916;8.378;2022-07-06T12:57:14;21.90;80.90
35381;DHT22;21486;51.916;8.378;2022-07-06T12:59:44;22.20;75.20
35381;DHT22;21486;51.916;8.378;2022-07-06T13:02:29;22.10;76.50
35381;DHT22;21486;51.916;8.378;2022-07-06T13:05:07;22.10;76.60
35381;DHT22;21486;51.916;8.378;2022-07-06T13:07:35;22.10;76.60
35381;DHT22;21486;51.916;8.378;2022-07-06T13:10:02;22.30;78.80
35381;DHT22;21486;51.916;8.378;2022-07-06T13:12:28;22.50;77.30
35381;DHT22;21486;51.916;8.378;2022-07-06T13:14:54;22.60;77.90
35381;DHT22;21486;51.916;8.378;2022-07-06T13:17:19;22.80;76.60
35381;DHT22;21486;51.916;8.378;2022-07-06T13:19:45;22.00;75.40
35381;DHT22;21486;51.916;8.378;2022-07-06T13:22:11;22.20;80.70
35381;DHT22;21486;51.916;8.378;2022-07-06T13:24:36;22.10;81.20
35381;DHT22;21486;51.916;8.378;2022-07-06T13:27:03;22.10;77.30
35381;DHT22;21486;51.916;8.378;2022-07-06T13:29:28;22.60;76.60
35381;DHT22;21486;51.916;8.378;2022-07-06T13:31:54;22.70;75.00
35381;DHT22;21486;51.916;8.378;2022-07-06T13:34:19;22.80;72.80
35381;DHT22;21486;51.916;8.378;2022-07-06T13:36:45;22.70;75.60
35381;DHT22;21486;51.916;8.378;2022-07-06T13:39:12;22.70;75.30
35381;DHT22;21486;51.916;8.378;2022-07-06T13:41:37;22.80;75.70
35381;DHT22;21486;51.916;8.378;2022-07-06T13:44:03;22.70;71.80
35381;DHT22;21486;51.916;8.378;2022-07-06T13:46:29;22.50;71.80
35381;DHT22;21486;51.916;8.378;2022-07-06T13:48:55;22.30;70.80
35381;DHT22;21486;51.916;8.378;2022-07-06T13:51:22;22.10;72.10
35381;DHT22;21486;51.916;8.378;2022-07-06T13:53:47;21.70;74.80
35381;DHT22;21486;51.916;8.378;2022-07-06T13:56:13;21.80;75.90
35381;DHT22;21486;51.916;8.378;2022-07-06T13:58:39;21.90;76.00
35381;DHT22;21486;51.916;8.378;2022-07-06T14:01:04;22.10;76.30
35381;DHT22;21486;51.916;8.378;2022-07-06T14:06:01;22.60;74.00
35381;DHT22;21486;51.916;8.378;2022-07-06T14:08:28;22.70;73.40
35381;DHT22;21486;51.916;8.378;2022-07-06T14:10:54;22.50;77.30
35381;DHT22;21486;51.916;8.378;2022-07-06T14:13:20;22.50;76.90
35381;DHT22;21486;51.916;8.378;2022-07-06T14:15:47;22.60;73.30
35381;DHT22;21486;51.916;8.378;2022-07-06T14:18:13;22.60;72.90
35381;DHT22;21486;51.916;8.378;2022-07-06T14:20:40;22.50;73.10
35381;DHT22;21486;51.916;8.378;2022-07-06T14:23:06;22.20;74.80
35381;DHT22;21486;51.916;8.378;2022-07-06T14:25:32;22.20;75.40
35381;DHT22;21486;51.916;8.378;2022-07-06T14:27:58;21.90;76.10
35381;DHT22;21486;51.916;8.378;2022-07-06T14:30:24;22.10;76.20
35381;DHT22;21486;51.916;8.378;2022-07-06T14:32:50;22.20;76.70
35381;DHT22;21486;51.916;8.378;2022-07-06T14:35:16;22.50;74.10
35381;DHT22;21486;51.916;8.378;2022-07-06T14:37:41;22.50;71.30
35381;DHT22;21486;51.916;8.378;2022-07-06T14:40:08;22.20;74.50
35381;DHT22;21486;51.916;8.378;2022-07-06T14:42:33;22.20;73.90
35381;DHT22;21486;51.916;8.378;2022-07-06T14:44:59;22.20;75.50
35381;DHT22;21486;51.916;8.378;2022-07-06T14:47:25;22.20;73.20
35381;DHT22;21486;51.916;8.378;2022-07-06T14:49:50;22.20;73.00
35381;DHT22;21486;51.916;8.378;2022-07-06T14:52:17;22.10;73.70
35381;DHT22;21486;51.916;8.378;2022-07-06T14:54:43;21.90;74.90
35381;DHT22;21486;51.916;8.378;2022-07-06T14:57:09;21.70;74.40
35381;DHT22;21486;51.916;8.378;2022-07-06T14:59:34;21.50;76.00
35381;DHT22;21486;51.916;8.378;2022-07-06T15:02:00;21.70;77.80
35381;DHT22;21486;51.916;8.378;2022-07-06T15:04:26;21.70;74.40
35381;DHT22;21486;51.916;8.378;2022-07-06T15:06:52;21.80;73.90
35381;DHT22;21486;51.916;8.378;2022-07-06T15:09:18;22.00;74.10
35381;DHT22;21486;51.916;8.378;2022-07-06T15:11:43;21.70;74.50
35381;DHT22;21486;51.916;8.378;2022-07-06T15:14:11;21.80;74.80
35381;DHT22;21486;51.916;8.378;2022-07-06T15:16:37;21.90;74.30
35381;DHT22;21486;51.916;8.378;2022-07-06T15:19:03;21.60;77.90
35381;DHT22;21486;51.916;8.378;2022-07-06T15:21:28;21.50;77.40
35381;DHT22;21486;51.916;8.378;2022-07-06T15:23:54;21.60;76.40
35381;DHT22;21486;51.916;8.378;2022-07-06T15:26:20;21.40;76.90
35381;DHT22;21486;51.916;8.378;2022-07-06T15:28:46;21.40;76.90
35381;DHT22;21486;51.916;8.378;2022-07-06T15:31:12;21.30;77.30
35381;DHT22;21486;51.916;8.378;2022-07-06T15:33:37;21.40;78.40
35381;DHT22;21486;51.916;8.378;2022-07-06T15:36:03;21.40;75.90
35381;DHT22;21486;51.916;8.378;2022-07-06T15:38:29;21.30;78.10
35381;DHT22;21486;51.916;8.378;2022-07-06T15:40:55;21.40;78.30
35381;DHT22;21486;51.916;8.378;2022-07-06T15:43:23;21.20;79.00
35381;DHT22;21486;51.916;8.378;2022-07-06T15:45:56;21.30;79.10
35381;DHT22;21486;51.916;8.378;2022-07-06T15:48:23;21.20;79.10
35381;DHT22;21486;51.916;8.378;2022-07-06T15:50:49;21.30;79.40
35381;DHT22;21486;51.916;8.378;2022-07-06T15:53:15;21.20;77.10
35381;DHT22;21486;51.916;8.378;2022-07-06T15:55:41;21.30;78.20
35381;DHT22;21486;51.916;8.378;2022-07-06T15:58:07;21.40;77.00
35381;DHT22;21486;51.916;8.378;2022-07-06T16:00:32;21.50;78.20
35381;DHT22;21486;51.916;8.378;2022-07-06T16:02:59;21.70;78.80
35381;DHT22;21486;51.916;8.378;2022-07-06T16:05:24;21.70;78.80
35381;DHT22;21486;51.916;8.378;2022-07-06T16:07:50;21.70;78.00
35381;DHT22;21486;51.916;8.378;2022-07-06T16:10:16;21.60;78.20
35381;DHT22;21486;51.916;8.378;2022-07-06T16:12:41;21.40;80.30
35381;DHT22;21486;51.916;8.378;2022-07-06T16:15:10;21.20;81.00
35381;DHT22;21486;51.916;8.378;2022-07-06T16:17:36;21.20;82.40
35381;DHT22;21486;51.916;8.378;2022-07-06T16:20:03;21.10;82.00
35381;DHT22;21486;51.916;8.378;2022-07-06T16:22:29;21.10;78.20
35381;DHT22;21486;51.916;8.378;2022-07-06T16:24:56;21.10;80.60
35381;DHT22;21486;51.916;8.378;2022-07-06T16:27:22;21.30;80.60
35381;DHT22;21486;51.916;8.378;2022-07-06T16:29:47;21.20;80.00
35381;DHT22;21486;51.916;8.378;2022-07-06T16:32:13;21.30;79.80
35381;DHT22;21486;51.916;8.378;2022-07-06T16:34:38;21.50;78.00
35381;DHT22;21486;51.916;8.378;2022-07-06T16:37:04;21.60;78.30
35381;DHT22;21486;51.916;8.378;2022-07-06T16:39:29;21.50;76.50
35381;DHT22;21486;51.916;8.378;2022-07-06T16:41:55;21.30;77.80
35381;DHT22;21486;51.916;8.378;2022-07-06T16:44:21;21.30;79.10
35381;DHT22;21486;51.916;8.378;2022-07-06T16:46:47;21.20;78.80
35381;DHT22;21486;51.916;8.378;2022-07-06T16:49:12;21.20;79.10
35381;DHT22;21486;51.916;8.378;2022-07-06T16:51:38;21.10;80.20
35381;DHT22;21486;51.916;8.378;2022-07-06T16:54:04;21.40;77.70
35381;DHT22;21486;51.916;8.378;2022-07-06T16:56:29;21.30;78.40
35381;DHT22;21486;51.916;8.378;2022-07-06T16:58:55;21.40;78.60
35381;DHT22;21486;51.916;8.378;2022-07-06T17:01:20;21.20;79.60
35381;DHT22;21486;51.916;8.378;2022-07-06T17:03:46;20.90;80.40
35381;DHT22;21486;51.916;8.378;2022-07-06T17:06:12;20.90;81.30
35381;DHT22;21486;51.916;8.378;2022-07-06T17:08:38;20.90;81.90
35381;DHT22;21486;51.916;8.378;2022-07-06T17:11:04;21.00;81.40
35381;DHT22;21486;51.916;8.378;2022-07-06T17:13:29;21.10;82.80
35381;DHT22;21486;51.916;8.378;2022-07-06T17:15:56;21.30;81.80
35381;DHT22;21486;51.916;8.378;2022-07-06T17:18:23;21.30;79.70
35381;DHT22;21486;51.916;8.378;2022-07-06T17:20:49;21.50;78.50
35381;DHT22;21486;51.916;8.378;2022-07-06T17:23:15;21.50;77.80
35381;DHT22;21486;51.916;8.378;2022-07-06T17:25:41;21.50;78.10
35381;DHT22;21486;51.916;8.378;2022-07-06T17:28:07;21.40;78.40
35381;DHT22;21486;51.916;8.378;2022-07-06T17:30:33;21.10;81.10
35381;DHT22;21486;51.916;8.378;2022-07-06T17:33:02;20.80;82.00
35381;DHT22;21486;51.916;8.378;2022-07-06T17:35:28;20.80;81.10
35381;DHT22;21486;51.916;8.378;2022-07-06T17:37:55;20.70;81.60
35381;DHT22;21486;51.916;8.378;2022-07-06T17:40:20;20.70;80.60
35381;DHT22;21486;51.916;8.378;2022-07-06T17:42:49;20.40;83.60
35381;DHT22;21486;51.916;8.378;2022-07-06T17:45:15;20.40;83.50
35381;DHT22;21486;51.916;8.378;2022-07-06T17:47:41;20.40;81.70
35381;DHT22;21486;51.916;8.378;2022-07-06T17:50:07;20.40;81.90
35381;DHT22;21486;51.916;8.378;2022-07-06T17:52:33;20.50;81.90
35381;DHT22;21486;51.916;8.378;2022-07-06T17:54:58;20.50;81.50
35381;DHT22;21486;51.916;8.378;2022-07-06T17:57:24;20.60;82.30
35381;DHT22;21486;51.916;8.378;2022-07-06T17:59:50;20.70;81.50
35381;DHT22;21486;51.916;8.378;2022-07-06T18:02:17;20.70;82.30
35381;DHT22;21486;51.916;8.378;2022-07-06T18:04:42;20.90;81.10
35381;DHT22;21486;51.916;8.378;2022-07-06T18:07:08;20.80;80.70
35381;DHT22;21486;51.916;8.378;2022-07-06T18:09:34;20.70;83.90
35381;DHT22;21486;51.916;8.378;2022-07-06T18:11:59;20.60;81.00
35381;DHT22;21486;51.916;8.378;2022-07-06T18:14:25;20.40;82.20
35381;DHT22;21486;51.916;8.378;2022-07-06T18:16:51;20.40;82.80
35381;DHT22;21486;51.916;8.378;2022-07-06T18:19:17;20.20;83.10
35381;DHT22;21486;51.916;8.378;2022-07-06T18:21:42;20.30;83.00
35381;DHT22;21486;51.916;8.378;2022-07-06T18:24:11;20.20;83.20
35381;DHT22;21486;51.916;8.378;2022-07-06T18:26:37;20.10;82.20
35381;DHT22;21486;51.916;8.378;2022-07-06T18:29:03;20.00;85.10
35381;DHT22;21486;51.916;8.378;2022-07-06T18:31:29;20.00;82.60
35381;DHT22;21486;51.916;8.378;2022-07-06T18:33:54;20.00;83.30
35381;DHT22;21486;51.916;8.378;2022-07-06T18:36:21;20.10;82.10
35381;DHT22;21486;51.916;8.378;2022-07-06T18:38:47;20.10;82.80
35381;DHT22;21486;51.916;8.378;2022-07-06T18:41:13;20.00;83.50
35381;DHT22;21486;51.916;8.378;2022-07-06T18:43:38;20.10;83.30
35381;DHT22;21486;51.916;8.378;2022-07-06T18:46:04;20.00;85.10
35381;DHT22;21486;51.916;8.378;2022-07-06T18:48:29;19.90;82.60
35381;DHT22;21486;51.916;8.378;2022-07-06T18:50:55;20.00;83.50
35381;DHT22;21486;51.916;8.378;2022-07-06T18:53:21;19.90;84.90
35381;DHT22;21486;51.916;8.378;2022-07-06T18:55:47;19.80;85.30
35381;DHT22;21486;51.916;8.378;2022-07-06T18:58:13;19.80;84.60
35381;DHT22;21486;51.916;8.378;2022-07-06T19:00:39;19.70;84.00
35381;DHT22;21486;51.916;8.378;2022-07-06T19:03:06;19.70;84.60
35381;DHT22;21486;51.916;8.378;2022-07-06T19:05:31;19.70;85.50
35381;DHT22;21486;51.916;8.378;2022-07-06T19:07:57;19.60;85.40
35381;DHT22;21486;51.916;8.378;2022-07-06T19:10:23;19.50;86.20
35381;DHT22;21486;51.916;8.378;2022-07-06T19:12:49;19.60;85.00
35381;DHT22;21486;51.916;8.378;2022-07-06T19:15:16;19.60;85.40
35381;DHT22;21486;51.916;8.378;2022-07-06T19:17:42;19.60;86.90
35381;DHT22;21486;51.916;8.378;2022-07-06T19:20:09;19.60;85.60
35381;DHT22;21486;51.916;8.378;2022-07-06T19:22:37;19.50;86.30
35381;DHT22;21486;51.916;8.378;2022-07-06T19:25:04;19.60;85.00
35381;DHT22;21486;51.916;8.378;2022-07-06T19:27:30;19.60;86.00
35381;DHT22;21486;51.916;8.378;2022-07-06T19:29:55;19.50;86.60
35381;DHT22;21486;51.916;8.378;2022-07-06T19:32:21;19.50;87.30
35381;DHT22;21486;51.916;8.378;2022-07-06T19:34:47;19.50;88.20
35381;DHT22;21486;51.916;8.378;2022-07-06T19:37:13;19.50;89.30
35381;DHT22;21486;51.916;8.378;2022-07-06T19:39:39;19.40;90.40
35381;DHT22;21486;51.916;8.378;2022-07-06T19:42:05;19.40;91.00
35381;DHT22;21486;51.916;8.378;2022-07-06T19:44:30;19.30;90.60
35381;DHT22;21486;51.916;8.378;2022-07-06T19:46:56;19.20;91.80
35381;DHT22;21486;51.916;8.378;2022-07-06T19:49:21;19.10;92.20
35381;DHT22;21486;51.916;8.378;2022-07-06T19:51:47;19.10;92.80
35381;DHT22;21486;51.916;8.378;2022-07-06T19:54:12;19.10;93.80
35381;DHT22;21486;51.916;8.378;2022-07-06T19:56:38;19.00;94.80
35381;DHT22;21486;51.916;8.378;2022-07-06T19:59:04;18.90;95.10
35381;DHT22;21486;51.916;8.378;2022-07-06T20:01:30;18.80;95.50
35381;DHT22;21486;51.916;8.378;2022-07-06T20:03:55;18.60;98.20
35381;DHT22;21486;51.916;8.378;2022-07-06T20:06:21;18.40;99.90
35381;DHT22;21486;51.916;8.378;2022-07-06T20:08:46;18.30;99.90
35381;DHT22;21486;51.916;8.378;2022-07-06T20:11:12;18.10;99.90
35381;DHT22;21486;51.916;8.378;2022-07-06T20:13:37;18.00;99.90
35381;DHT22;21486;51.916;8.378;2022-07-06T20:16:03;18.00;99.90
35381;DHT22;21486;51.916;8.378;2022-07-06T20:18:28;17.80;99.90
35381;DHT22;21486;51.916;8.378;2022-07-06T20:20:54;17.70;99.90
35381;DHT22;21486;51.916;8.378;2022-07-06T20:23:20;17.70;99.90
35381;DHT22;21486;51.916;8.378;2022-07-06T20:25:46;17.70;99.90
35381;DHT22;21486;51.916;8.378;2022-07-06T20:28:11;17.70;99.90
35381;DHT22;21486;51.916;8.378;2022-07-06T20:30:37;17.70;99.90
35381;DHT22;21486;51.916;8.378;2022-07-06T20:33:02;17.80;99.90
35381;DHT22;21486;51.916;8.378;2022-07-06T20:35:28;17.80;99.90
35381;DHT22;21486;51.916;8.378;2022-07-06T20:37:53;17.70;99.90
35381;DHT22;21486;51.916;8.378;2022-07-06T20:40:19;17.80;99.90
35381;DHT22;21486;51.916;8.378;2022-07-06T20:42:45;17.70;99.90
35381;DHT22;21486;51.916;8.378;2022-07-06T20:45:14;17.70;99.90
35381;DHT22;21486;51.916;8.378;2022-07-06T20:47:39;17.60;99.90
35381;DHT22;21486;51.916;8.378;2022-07-06T20:50:05;17.60;99.90
35381;DHT22;21486;51.916;8.378;2022-07-06T20:52:32;17.60;99.90
35381;DHT22;21486;51.916;8.378;2022-07-06T20:54:57;17.70;99.90
35381;DHT22;21486;51.916;8.378;2022-07-06T20:57:23;17.70;99.90
35381;DHT22;21486;51.916;8.378;2022-07-06T20:59:48;17.70;99.90
35381;DHT22;21486;51.916;8.378;2022-07-06T21:02:14;17.70;99.90
35381;DHT22;21486;51.916;8.378;2022-07-06T21:04:39;17.60;99.90
35381;DHT22;21486;51.916;8.378;2022-07-06T21:07:05;17.60;99.90
35381;DHT22;21486;51.916;8.378;2022-07-06T21:09:31;17.60;99.90
35381;DHT22;21486;51.916;8.378;2022-07-06T21:11:56;17.70;99.90
35381;DHT22;21486;51.916;8.378;2022-07-06T21:14:22;17.50;99.90
35381;DHT22;21486;51.916;8.378;2022-07-06T21:16:47;17.50;99.90
35381;DHT22;21486;51.916;8.378;2022-07-06T21:19:13;17.60;99.90
35381;DHT22;21486;51.916;8.378;2022-07-06T21:21:38;17.70;99.90
35381;DHT22;21486;51.916;8.378;2022-07-06T21:24:04;17.70;99.90
35381;DHT22;21486;51.916;8.378;2022-07-06T21:26:29;17.70;99.90
35381;DHT22;21486;51.916;8.378;2022-07-06T21:28:55;17.70;99.90
35381;DHT22;21486;51.916;8.378;2022-07-06T21:31:20;17.60;99.90
35381;DHT22;21486;51.916;8.378;2022-07-06T21:33:46;17.60;99.90
35381;DHT22;21486;51.916;8.378;2022-07-06T21:36:11;17.70;99.90
35381;DHT22;21486;51.916;8.378;2022-07-06T21:38:37;17.70;99.90
35381;DHT22;21486;51.916;8.378;2022-07-06T21:41:03;17.60;99.90
35381;DHT22;21486;51.916;8.378;2022-07-06T21:43:28;17.70;99.90
35381;DHT22;21486;51.916;8.378;2022-07-06T21:45:54;17.70;99.90
35381;DHT22;21486;51.916;8.378;2022-07-06T21:48:19;17.70;99.90
35381;DHT22;21486;51.916;8.378;2022-07-06T21:50:45;17.60;99.90
35381;DHT22;21486;51.916;8.378;2022-07-06T21:53:10;17.70;99.90
35381;DHT22;21486;51.916;8.378;2022-07-06T21:55:36;17.70;99.90
35381;DHT22;21486;51.916;8.378;2022-07-06T21:58:02;17.60;99.90
35381;DHT22;21486;51.916;8.378;2022-07-06T22:00:27;17.70;99.90
35381;DHT22;21486;51.916;8.378;2022-07-06T22:02:53;17.60;99.90
35381;DHT22;21486;51.916;8.378;2022-07-06T22:05:19;17.70;99.90
35381;DHT22;21486;51.916;8.378;2022-07-06T22:07:44;17.70;99.90
35381;DHT22;21486;51.916;8.378;2022-07-06T22:10:10;17.70;99.90
35381;DHT22;21486;51.916;8.378;2022-07-06T22:12:35;17.60;99.90
35381;DHT22;21486;51.916;8.378;2022-07-06T22:15:01;17.70;99.90
35381;DHT22;21486;51.916;8.378;2022-07-06T22:17:26;17.70;99.90
35381;DHT22;21486;51.916;8.378;2022-07-06T22:19:52;17.70;99.90
35381;DHT22;21486;51.916;8.378;2022-07-06T22:22:17;17.60;99.90
35381;DHT22;21486;51.916;8.378;2022-07-06T22:24:43;17.60;99.90
35381;DHT22;21486;51.916;8.378;2022-07-06T22:27:08;17.70;99.90
35381;DHT22;21486;51.916;8.378;2022-07-06T22:29:34;17.70;99.90
35381;DHT22;21486;51.916;8.378;2022-07-06T22:31:59;17.70;99.90
35381;DHT22;21486;51.916;8.378;2022-07-06T22:34:25;17.70;99.90
35381;DHT22;21486;51.916;8.378;2022-07-06T22:36:50;17.70;99.90
35381;DHT22;21486;51.916;8.378;2022-07-06T22:39:16;17.70;99.90
35381;DHT22;21486;51.916;8.378;2022-07-06T22:41:41;17.60;99.90
35381;DHT22;21486;51.916;8.378;2022-07-06T22:44:07;17.80;99.90
35381;DHT22;21486;51.916;8.378;2022-07-06T22:46:37;17.70;99.90
35381;DHT22;21486;51.916;8.378;2022-07-06T22:49:03;17.70;99.90
35381;DHT22;21486;51.916;8.378;2022-07-06T22:51:29;17.80;99.90
35381;DHT22;21486;51.916;8.378;2022-07-06T22:53:54;17.70;99.90
35381;DHT22;21486;51.916;8.378;2022-07-06T22:56:20;17.80;99.90
35381;DHT22;21486;51.916;8.378;2022-07-06T22:58:46;17.80;99.90
35381;DHT22;21486;51.916;8.378;2022-07-06T23:01:14;17.80;99.90
35381;DHT22;21486;51.916;8.378;2022-07-06T23:03:41;17.80;99.90
35381;DHT22;21486;51.916;8.378;2022-07-06T23:06:07;17.70;99.90
35381;DHT22;21486;51.916;8.378;2022-07-06T23:08:32;17.70;99.90
35381;DHT22;21486;51.916;8.378;2022-07-06T23:10:58;17.70;99.90
35381;DHT22;21486;51.916;8.378;2022-07-06T23:13:23;17.70;99.90
35381;DHT22;21486;51.916;8.378;2022-07-06T23:15:49;17.80;99.90
35381;DHT22;21486;51.916;8.378;2022-07-06T23:18:17;17.70;99.90
35381;DHT22;21486;51.916;8.378;2022-07-06T23:20:42;17.60;99.90
35381;DHT22;21486;51.916;8.378;2022-07-06T23:23:08;17.70;99.90
35381;DHT22;21486;51.916;8.378;2022-07-06T23:25:34;17.70;99.90
35381;DHT22;21486;51.916;8.378;2022-07-06T23:27:59;17.70;99.90
35381;DHT22;21486;51.916;8.378;2022-07-06T23:30:25;17.80;99.90
35381;DHT22;21486;51.916;8.378;2022-07-06T23:32:51;17.70;99.90
35381;DHT22;21486;51.916;8.378;2022-07-06T23:35:16;17.70;99.90
35381;DHT22;21486;51.916;8.378;2022-07-06T23:37:43;17.60;99.90
35381;DHT22;21486;51.916;8.378;2022-07-06T23:40:09;17.60;99.90
35381;DHT22;21486;51.916;8.378;2022-07-06T23:42:35;17.60;99.90
35381;DHT22;21486;51.916;8.378;2022-07-06T23:45:01;17.70;99.90
35381;DHT22;21486;51.916;8.378;2022-07-06T23:47:30;17.60;99.90
35381;DHT22;21486;51.916;8.378;2022-07-06T23:49:56;17.70;99.90
35381;DHT22;21486;51.916;8.378;2022-07-06T23:52:22;17.70;99.90
35381;DHT22;21486;51.916;8.378;2022-07-06T23:54:47;17.60;99.90
35381;DHT22;21486;51.916;8.378;2022-07-06T23:57:12;17.70;99.90
35381;DHT22;21486;51.916;8.378;2022-07-06T23:59:38;17.80;99.90
